Time;durP1;ratioP1;P1;durP2;ratioP2;P2;SDS_P1;SDS_P2;PMS_P1;PMS_P2;Temp;Humidity;BMP_temperature;BMP_pressure;BME280_temperature;BME280_humidity;BME280_pressure;Samples;Min_cycle;Max_cycle;Signal;HPM_P1;HPM_P2
2023/11/19 00:01:05;;;;;;;2.97;2.72;;;;;;;;;;4980911;28;20395;-81
2023/11/19 00:03:34;;;;;;;8.63;3.72;;;;;;;;;;4985205;28;20052;-82
2023/11/19 00:06:02;;;;;;;8.68;3.67;;;;;;;;;;4999934;28;20046;-82
2023/11/19 00:08:29;;;;;;;4.38;3.35;;;;;;;;;;4993373;28;20042;-82
2023/11/19 00:10:57;;;;;;;4.88;4.38;;;;;;;;;;5000721;28;20049;-82
2023/11/19 00:13:25;;;;;;;3.35;3.05;;;;;;;;;;5000746;28;20057;-81
2023/11/19 00:15:54;;;;;;;4.20;3.25;;;;;;;;;;4982967;28;20045;-81
2023/11/19 00:18:22;;;;;;;6.53;3.97;;;;;;;;;;4973094;28;20065;-81
2023/11/19 00:20:49;;;;;;;3.67;3.30;;;;;;;;;;4981934;28;20053;-81
2023/11/19 00:23:16;;;;;;;4.35;3.38;;;;;;;;;;4997726;28;20050;-81
2023/11/19 00:25:44;;;;;;;4.25;3.85;;;;;;;;;;5014021;28;20057;-81
2023/11/19 00:28:11;;;;;;;3.90;3.60;;;;;;;;;;5017948;28;20049;-81
2023/11/19 00:30:40;;;;;;;3.97;3.30;;;;;;;;;;4977902;28;20069;-81
2023/11/19 00:33:09;;;;;;;3.90;3.50;;;;;;;;;;4983505;28;20426;-81
2023/11/19 00:35:37;;;;;;;5.90;4.53;;;;;;;;;;4995634;28;20046;-81
2023/11/19 00:38:04;;;;;;;4.30;3.72;;;;;;;;;;4995989;28;20387;-81
2023/11/19 00:40:31;;;;;;;3.50;3.20;;;;;;;;;;4978789;28;20054;-81
2023/11/19 00:42:59;;;;;;;4.63;4.13;;;;;;;;;;4984059;28;20050;-81
2023/11/19 00:45:27;;;;;;;3.20;3.00;;;;;;;;;;4998294;28;20041;-81
2023/11/19 00:47:54;;;;;;;5.00;4.15;;;;;;;;;;4981580;28;20057;-81
2023/11/19 00:50:23;;;;;;;3.97;3.50;;;;;;;;;;4996678;28;20042;-81
2023/11/19 00:52:51;;;;;;;4.68;4.20;;;;;;;;;;5000288;28;20041;-81
2023/11/19 00:55:19;;;;;;;4.43;3.58;;;;;;;;;;4982378;28;20054;-81
2023/11/19 00:57:46;;;;;;;4.72;4.30;;;;;;;;;;4980980;28;20061;-81
2023/11/19 01:00:18;;;;;;;6.25;4.35;;;;;;;;;;4998461;28;20046;-81
2023/11/19 01:02:46;;;;;;;6.30;5.50;;;;;;;;;;4980033;28;20050;-81
2023/11/19 01:05:14;;;;;;;8.45;4.40;;;;;;;;;;4982859;28;20049;-81
2023/11/19 01:07:43;;;;;;;6.35;5.75;;;;;;;;;;4981904;28;20054;-81
2023/11/19 01:10:11;;;;;;;6.03;5.28;;;;;;;;;;4992550;28;20046;-82
2023/11/19 01:12:38;;;;;;;5.85;4.93;;;;;;;;;;5000315;28;20474;-82
2023/11/19 01:15:07;;;;;;;5.70;4.93;;;;;;;;;;4997383;28;20058;-82
2023/11/19 01:17:35;;;;;;;5.05;4.65;;;;;;;;;;4979435;28;20065;-82
2023/11/19 01:20:03;;;;;;;5.38;4.88;;;;;;;;;;4982346;28;20050;-82
2023/11/19 01:22:30;;;;;;;21.98;6.60;;;;;;;;;;4994859;28;20053;-82
2023/11/19 01:25:00;;;;;;;5.07;4.68;;;;;;;;;;4983606;28;20057;-82
2023/11/19 01:27:27;;;;;;;5.15;4.50;;;;;;;;;;4997117;28;20061;-82
2023/11/19 01:29:54;;;;;;;6.85;4.80;;;;;;;;;;4981932;28;20056;-82
2023/11/19 01:32:24;;;;;;;4.47;4.05;;;;;;;;;;4992287;28;20419;-82
2023/11/19 01:34:51;;;;;;;5.00;4.53;;;;;;;;;;4983778;28;20050;-82
2023/11/19 01:37:18;;;;;;;5.05;4.18;;;;;;;;;;4982952;28;20050;-82
2023/11/19 01:39:46;;;;;;;8.05;4.20;;;;;;;;;;4980863;28;20052;-82
2023/11/19 01:42:15;;;;;;;4.68;4.00;;;;;;;;;;4982345;28;20418;-82
2023/11/19 01:44:42;;;;;;;4.63;4.22;;;;;;;;;;4999078;28;20045;-82
2023/11/19 01:47:10;;;;;;;4.45;4.03;;;;;;;;;;4982797;28;20127;-82
2023/11/19 01:49:37;;;;;;;6.05;4.63;;;;;;;;;;4981392;28;20046;-82
2023/11/19 01:52:06;;;;;;;5.28;4.30;;;;;;;;;;4977479;28;20414;-82
2023/11/19 01:54:33;;;;;;;6.88;4.55;;;;;;;;;;4998593;28;20042;-82
2023/11/19 01:57:00;;;;;;;4.40;4.00;;;;;;;;;;4981199;28;20049;-82
2023/11/19 01:59:29;;;;;;;6.75;5.32;;;;;;;;;;4994236;28;20061;-82
2023/11/19 02:01:57;;;;;;;5.70;5.20;;;;;;;;;;4990394;28;20058;-82
2023/11/19 02:04:25;;;;;;;8.75;4.25;;;;;;;;;;4979305;28;20068;-82
2023/11/19 02:06:55;;;;;;;4.97;4.57;;;;;;;;;;4983729;28;20433;-82
2023/11/19 02:09:22;;;;;;;4.93;4.40;;;;;;;;;;4984286;28;20060;-82
2023/11/19 02:11:51;;;;;;;5.05;4.57;;;;;;;;;;5001900;28;20058;-82
2023/11/19 02:14:19;;;;;;;4.32;3.92;;;;;;;;;;4978583;28;20425;-82
2023/11/19 02:16:49;;;;;;;3.97;3.55;;;;;;;;;;4983471;28;20061;-82
2023/11/19 02:19:16;;;;;;;4.07;3.78;;;;;;;;;;4984638;28;20054;-82
2023/11/19 02:21:43;;;;;;;4.53;3.72;;;;;;;;;;5000324;28;20037;-82
2023/11/19 02:24:13;;;;;;;3.50;3.20;;;;;;;;;;4998998;28;20050;-82
2023/11/19 02:26:42;;;;;;;2.78;2.58;;;;;;;;;;5018013;28;20046;-82
2023/11/19 02:29:13;;;;;;;3.08;2.78;;;;;;;;;;4983038;28;20411;-82
2023/11/19 02:31:40;;;;;;;3.03;2.72;;;;;;;;;;4992995;28;20413;-82
2023/11/19 02:34:07;;;;;;;3.60;2.63;;;;;;;;;;4980357;28;20052;-82
2023/11/19 02:36:35;;;;;;;1.42;1.33;;;;;;;;;;4998343;28;20042;-82
2023/11/19 02:39:10;;;;;;;1.60;1.20;;;;;;;;;;4997443;28;20052;-82
2023/11/19 02:41:39;;;;;;;1.65;1.27;;;;;;;;;;4999151;28;20050;-82
2023/11/19 02:44:07;;;;;;;1.73;1.02;;;;;;;;;;4986531;28;20406;-82
2023/11/19 02:46:37;;;;;;;1.05;0.95;;;;;;;;;;5003542;28;20407;-82
2023/11/19 02:49:04;;;;;;;0.80;0.80;;;;;;;;;;4983186;28;20503;-82
2023/11/19 02:51:33;;;;;;;1.02;0.80;;;;;;;;;;4999406;28;20529;-82
2023/11/19 02:54:03;;;;;;;1.17;0.73;;;;;;;;;;4996932;28;20065;-82
2023/11/19 02:56:34;;;;;;;1.48;1.10;;;;;;;;;;4978142;28;20490;-82
2023/11/19 02:59:08;;;;;;;0.70;0.70;;;;;;;;;;4989448;28;20062;-82
2023/11/19 03:01:37;;;;;;;1.63;1.33;;;;;;;;;;4979989;28;20065;-82
2023/11/19 03:04:05;;;;;;;1.48;1.10;;;;;;;;;;5003175;28;20054;-82
2023/11/19 03:06:34;;;;;;;1.83;1.13;;;;;;;;;;5003230;28;20049;-82
2023/11/19 03:09:06;;;;;;;1.38;1.25;;;;;;;;;;4984887;28;20601;-81
2023/11/19 03:11:35;;;;;;;1.30;1.20;;;;;;;;;;4989940;28;20422;-81
2023/11/19 03:14:03;;;;;;;1.70;1.42;;;;;;;;;;4981260;28;20050;-82
2023/11/19 03:16:30;;;;;;;1.70;1.00;;;;;;;;;;4999550;28;20047;-82
2023/11/19 03:19:00;;;;;;;2.13;1.60;;;;;;;;;;5005308;28;20060;-82
2023/11/19 03:21:31;;;;;;;1.50;1.02;;;;;;;;;;4984678;28;20104;-82
2023/11/19 03:23:59;;;;;;;1.80;0.95;;;;;;;;;;4986319;28;20057;-82
2023/11/19 03:26:28;;;;;;;1.48;1.20;;;;;;;;;;5002360;28;20037;-82
2023/11/19 03:29:00;;;;;;;3.28;1.40;;;;;;;;;;5003287;28;20038;-82
2023/11/19 03:31:27;;;;;;;1.20;1.10;;;;;;;;;;4982590;28;20054;-82
2023/11/19 04:01:47;;;;;;;1.90;1.60;;;;;;;;;;5099001;23;20054;-80
2023/11/19 04:05:01;;;;;;;;;;;;;;;;;;;;;
2023/11/19 04:08:10;;;;;;;1.40;1.25;;;;;;;;;;4894281;29;20047;-81
2023/11/19 04:11:39;;;;;;;1.30;1.20;;;;;;;;;;4994967;28;20076;-81
2023/11/19 04:14:34;;;;;;;1.73;1.60;;;;;;;;;;4989521;28;20054;-81
2023/11/19 04:17:05;;;;;;;2.17;1.40;;;;;;;;;;5013864;28;20053;-82
2023/11/19 04:19:33;;;;;;;2.53;1.60;;;;;;;;;;4997474;28;20058;-82
2023/11/19 04:22:00;;;;;;;1.15;1.05;;;;;;;;;;4997652;28;20526;-81
2023/11/19 04:24:35;;;;;;;1.30;1.20;;;;;;;;;;4980913;28;20050;-81
2023/11/19 04:27:03;;;;;;;1.52;1.42;;;;;;;;;;4982012;28;20058;-81
2023/11/19 04:29:34;;;;;;;2.22;2.03;;;;;;;;;;5028194;23;20057;-81
2023/11/19 04:32:07;;;;;;;1.50;1.20;;;;;;;;;;4963112;28;20062;-81
2023/11/19 04:34:44;;;;;;;1.40;1.30;;;;;;;;;;4972486;28;20054;-81
2023/11/19 04:37:17;;;;;;;2.33;1.75;;;;;;;;;;4962957;28;20427;-81
2023/11/19 04:39:51;;;;;;;1.70;1.60;;;;;;;;;;4980646;28;20043;-81
2023/11/19 04:42:24;;;;;;;1.63;1.25;;;;;;;;;;4980669;28;20055;-81
2023/11/19 04:44:53;;;;;;;;;;;;;;;;;;4980498;28;20043;-81
2023/11/19 04:47:33;;;;;;;2.17;1.98;;;;;;;;;;4979090;28;19926;-81
2023/11/19 04:50:10;;;;;;;3.28;2.15;;;;;;;;;;4995585;28;20061;-81
2023/11/19 04:53:02;;;;;;;;;;;;;;;;;;;;;
2023/11/19 04:55:57;;;;;;;2.40;2.20;;;;;;;;;;4974057;28;20054;-85
2023/11/19 04:58:29;;;;;;;2.30;1.80;;;;;;;;;;4971825;28;20054;-86
2023/11/19 05:00:56;;;;;;;3.70;1.80;;;;;;;;;;4956086;28;20274;-85
2023/11/19 05:03:26;;;;;;;2.38;2.17;;;;;;;;;;4954473;28;20054;-86
2023/11/19 05:05:55;;;;;;;2.38;2.03;;;;;;;;;;4956555;28;20051;-85
2023/11/19 05:08:23;;;;;;;1.83;1.60;;;;;;;;;;4957173;28;21575;-85
2023/11/19 05:10:50;;;;;;;2.13;1.95;;;;;;;;;;4955964;28;20058;-85
2023/11/19 05:13:18;;;;;;;2.40;1.90;;;;;;;;;;4972697;28;20051;-85
2023/11/19 05:15:50;;;;;;;2.58;1.73;;;;;;;;;;4971557;28;20061;-85
2023/11/19 05:18:17;;;;;;;3.05;2.03;;;;;;;;;;4974154;28;20050;-85
2023/11/19 05:20:46;;;;;;;2.17;1.88;;;;;;;;;;4954839;28;20046;-86
2023/11/19 05:23:13;;;;;;;1.95;1.42;;;;;;;;;;4971058;28;20062;-85
2023/11/19 05:25:41;;;;;;;2.03;1.60;;;;;;;;;;4955132;28;20053;-85
2023/11/19 05:28:08;;;;;;;2.35;1.48;;;;;;;;;;4939528;28;20058;-85
2023/11/19 05:30:35;;;;;;;2.35;2.15;;;;;;;;;;4970566;28;20549;-85
2023/11/19 05:33:03;;;;;;;1.98;1.67;;;;;;;;;;4947211;28;20053;-85
2023/11/19 05:35:30;;;;;;;2.72;1.95;;;;;;;;;;4970776;28;20138;-86
2023/11/19 05:37:59;;;;;;;1.73;1.52;;;;;;;;;;4971747;28;20042;-85
2023/11/19 05:40:26;;;;;;;1.90;1.75;;;;;;;;;;4955415;28;20122;-85
2023/11/19 05:42:53;;;;;;;2.72;2.08;;;;;;;;;;4972271;28;20058;-86
2023/11/19 05:45:21;;;;;;;2.67;1.40;;;;;;;;;;4953810;28;20058;-86
2023/11/19 05:47:48;;;;;;;3.38;1.70;;;;;;;;;;4954969;28;20051;-86
2023/11/19 05:50:15;;;;;;;5.05;1.70;;;;;;;;;;4954788;28;20058;-85
2023/11/19 05:52:43;;;;;;;3.33;2.10;;;;;;;;;;4971174;28;20039;-85
2023/11/19 05:55:12;;;;;;;2.35;2.15;;;;;;;;;;4969853;28;20494;-86
2023/11/19 05:57:40;;;;;;;3.13;1.70;;;;;;;;;;4972579;28;20043;-86
2023/11/19 06:00:10;;;;;;;2.28;1.15;;;;;;;;;;4971419;28;20055;-86
2023/11/19 06:02:40;;;;;;;2.13;1.83;;;;;;;;;;4954447;28;20050;-86
2023/11/19 06:05:09;;;;;;;1.80;1.40;;;;;;;;;;4969331;28;20051;-86
2023/11/19 06:07:38;;;;;;;5.90;1.42;;;;;;;;;;4970690;28;20043;-85
2023/11/19 06:10:06;;;;;;;1.70;1.60;;;;;;;;;;4971247;28;20513;-86
2023/11/19 06:12:38;;;;;;;2.78;2.10;;;;;;;;;;4970814;28;20058;-85
2023/11/19 06:15:08;;;;;;;1.42;1.33;;;;;;;;;;4971900;28;20046;-85
2023/11/19 06:17:35;;;;;;;2.08;1.40;;;;;;;;;;4974317;28;20062;-85
2023/11/19 06:20:05;;;;;;;1.85;1.60;;;;;;;;;;4975151;28;20051;-85
2023/11/19 06:22:32;;;;;;;1.48;1.30;;;;;;;;;;4970198;28;20062;-85
2023/11/19 06:25:00;;;;;;;1.85;1.60;;;;;;;;;;4968222;28;20510;-86
2023/11/19 06:27:27;;;;;;;3.03;1.48;;;;;;;;;;4973191;28;20051;-85
2023/11/19 06:29:56;;;;;;;2.45;1.30;;;;;;;;;;4974585;28;20047;-86
2023/11/19 06:32:25;;;;;;;1.15;1.05;;;;;;;;;;4958719;28;20050;-85
2023/11/19 06:34:54;;;;;;;1.05;0.70;;;;;;;;;;4973969;28;20054;-85
2023/11/19 06:37:24;;;;;;;1.55;1.02;;;;;;;;;;4957655;28;20054;-85
2023/11/19 06:39:53;;;;;;;5.25;1.10;;;;;;;;;;4966836;28;20046;-85
2023/11/19 06:42:23;;;;;;;1.05;0.88;;;;;;;;;;4974824;28;20051;-85
2023/11/19 06:44:52;;;;;;;0.98;0.70;;;;;;;;;;4973109;28;20054;-85
2023/11/19 06:47:21;;;;;;;1.50;1.00;;;;;;;;;;4970287;28;20046;-85
2023/11/19 07:18:08;;;;;;;1.00;0.60;;;;;;;;;;4255356;22;20129;-84
2023/11/19 07:20:37;;;;;;;1.27;0.80;;;;;;;;;;5004520;28;20053;-85
2023/11/19 07:23:07;;;;;;;1.13;0.73;;;;;;;;;;5011252;28;20061;-85
2023/11/19 07:25:35;;;;;;;1.10;0.65;;;;;;;;;;5009548;28;20054;-85
2023/11/19 07:28:04;;;;;;;0.95;0.85;;;;;;;;;;4996671;28;20046;-85
2023/11/19 07:30:36;;;;;;;1.45;0.85;;;;;;;;;;5011548;28;20057;-85
2023/11/19 07:33:03;;;;;;;1.55;0.90;;;;;;;;;;5008009;28;20429;-85
2023/11/19 07:35:32;;;;;;;1.25;0.75;;;;;;;;;;5012736;28;20433;-85
2023/11/19 07:37:59;;;;;;;1.00;0.90;;;;;;;;;;5015339;28;20042;-85
2023/11/19 07:40:27;;;;;;;0.98;0.70;;;;;;;;;;5012767;28;20506;-85
2023/11/19 07:42:55;;;;;;;1.08;0.93;;;;;;;;;;4995165;28;20057;-85
2023/11/19 07:45:22;;;;;;;1.48;1.02;;;;;;;;;;5010976;28;20057;-85
2023/11/19 07:47:51;;;;;;;2.13;0.65;;;;;;;;;;5012241;28;20041;-85
2023/11/19 07:50:22;;;;;;;1.55;0.50;;;;;;;;;;4995319;28;20046;-85
2023/11/19 10:29:08;;;;;;;;;;;;;;;;;;5041638;22;20406;-83
2023/11/19 10:32:17;;;;;;;0.80;0.63;;;;;;;;;;5008426;28;19925;-82
2023/11/19 10:35:17;;;;;;;1.15;0.63;;;;;;;;;;4969690;28;20057;-82
2023/11/19 10:38:17;;;;;;;1.23;0.95;;;;;;;;;;5016611;28;20057;-82
2023/11/19 10:41:29;;;;;;;2.17;0.80;;;;;;;;;;5025196;23;20531;-83
2023/11/19 10:44:33;;;;;;;0.70;0.57;;;;;;;;;;4995284;28;20053;-83
2023/11/19 10:47:43;;;;;;;4.30;1.27;;;;;;;;;;5012429;28;20076;-83
2023/11/19 11:44:00;;;;;;;1.52;0.60;;;;;;;;;;5803776;23;20013;-82
2023/11/19 11:47:01;;;;;;;1.70;0.88;;;;;;;;;;4926813;29;20050;-81
2023/11/19 11:49:49;;;;;;;1.25;0.70;;;;;;;;;;4950171;28;20058;-81
2023/11/19 11:56:23;;;;;;;1.27;1.10;;;;;;;;;;4903014;29;20066;-84
2023/11/19 11:59:05;;;;;;;1.67;0.90;;;;;;;;;;4953104;29;20047;-84
2023/11/19 12:01:46;;;;;;;;;;;;;;;;;;;;;
2023/11/19 12:04:46;;;;;;;;;;;;;;;;;;;;;
2023/11/19 12:07:46;;;;;;;7.70;0.90;;;;;;;;;;4937911;28;20047;-84
2023/11/19 12:10:39;;;;;;;0.90;0.73;;;;;;;;;;4929456;29;20051;-84
2023/11/19 12:13:11;;;;;;;1.10;1.00;;;;;;;;;;4956190;28;20055;-84
2023/11/19 12:20:31;;;;;;;0.98;0.52;;;;;;;;;;4916579;23;20825;-85
2023/11/19 12:31:26;;;;;;;2.40;1.10;;;;;;;;;;4941437;29;20047;-84
2023/11/19 12:34:23;;;;;;;1.63;0.80;;;;;;;;;;4970779;28;20062;-84
2023/11/19 12:37:08;;;;;;;1.92;1.10;;;;;;;;;;5021088;28;20453;-84
2023/11/19 12:46:21;;;;;;;3.97;1.88;;;;;;;;;;4770738;26;20047;-83
2023/11/19 12:56:52;;;;;;;1.73;1.23;;;;;;;;;;4791799;29;20125;-83
2023/11/19 13:04:07;;;;;;;0.68;0.60;;;;;;;;;;4804330;29;20050;-83
2023/11/19 13:07:14;;;;;;;1.73;0.70;;;;;;;;;;4894185;29;20052;-83
2023/11/19 13:10:04;;;;;;;2.80;1.02;;;;;;;;;;4891334;29;20060;-83
2023/11/19 13:12:45;;;;;;;3.40;0.88;;;;;;;;;;4914306;28;20054;-83
2023/11/19 13:15:46;;;;;;;;;;;;;;;;;;4938841;28;20050;-83
2023/11/19 13:18:25;;;;;;;1.45;0.85;;;;;;;;;;4900459;29;20411;-83
2023/11/19 13:21:50;;;;;;;;;;;;;;;;;;;;;
2023/11/19 13:47:24;;;;;;;3.70;1.40;;;;;;;;;;4993555;28;20053;-82
2023/11/19 13:49:59;;;;;;;3.63;1.35;;;;;;;;;;4978310;28;20054;-82
2023/11/19 13:53:18;;;;;;;5.38;1.92;;;;;;;;;;4977927;28;20063;-84
2023/11/19 13:56:25;;;;;;;;;;;;;;;;;;;;;
2023/11/19 13:59:11;;;;;;;1.80;1.42;;;;;;;;;;4990708;28;20053;-83
2023/11/19 14:02:07;;;;;;;3.58;1.33;;;;;;;;;;4987738;28;20057;-85
2023/11/19 14:05:18;;;;;;;2.15;0.82;;;;;;;;;;5014321;28;20502;-81
2023/11/19 14:29:17;;;;;;;1.33;0.82;;;;;;;;;;4805795;29;20092;-81
2023/11/19 14:57:57;;;;;;;2.05;1.30;;;;;;;;;;5030064;28;20145;-81
2023/11/19 15:15:55;;;;;;;;;;;;;;;;;;;;;
2023/11/19 15:22:53;;;;;;;1.48;0.82;;;;;;;;;;4868388;29;20065;-81
2023/11/19 15:34:13;;;;;;;5.13;1.02;;;;;;;;;;4990409;28;20055;-82
2023/11/19 15:54:56;;;;;;;3.10;0.73;;;;;;;;;;4789448;29;20066;-81
